Terminal Aerodrome Forecast
Issued by NWS Norman, OK

Home | Current Version | Previous Version | Text Only | Print | Product List | Glossary On
Versions: 1 2 3 4 5 6 7 8 9 10 11 12 13 14 15 16 17 18 19 20 21 22
000
FTUS44 KOUN 310539
TAFSPS
TAF
KSPS 310539Z 3106/0106 08007KT P6SM OVC060
     FM311100 13010KT 5SM -RA OVC025
     FM311500 13013KT 3SM -RA BR OVC008
      TEMPO 0102/0106 1SM -RA BR OVC004=

USA.gov is the U.S. government's official web portal to all federal, state and local government web resources and services.